Time;durP1;ratioP1;P1;durP2;ratioP2;P2;SDS_P1;SDS_P2;PMS_P1;PMS_P2;Temp;Humidity;BMP_temperature;BMP_pressure;BME280_temperature;BME280_humidity;BME280_pressure;Samples;Min_cycle;Max_cycle;Signal;HPM_P1;HPM_P2
2021/06/14 00:00:12;;;;;;;3.98;0.68;;;;;;;13.28;59.10;97703.32;1661491;86;21090;-65
2021/06/14 00:02:41;;;;;;;1.50;0.45;;;;;;;13.24;59.67;97709.84;1661503;86;21069;-65
2021/06/14 00:05:17;;;;;;;1.15;0.78;;;;;;;13.21;58.46;97714.91;1661586;86;21129;-65
2021/06/14 00:07:44;;;;;;;1.27;0.60;;;;;;;13.19;58.94;97710.85;1660560;86;21022;-64
2021/06/14 00:10:13;;;;;;;1.12;0.50;;;;;;;13.18;59.15;97707.91;1661598;86;21169;-64
2021/06/14 00:12:41;;;;;;;2.02;0.47;;;;;;;13.18;58.48;97702.70;1661731;86;21518;-65
2021/06/14 00:15:12;;;;;;;1.20;0.80;;;;;;;13.20;58.75;97700.72;1661330;86;21037;-65
2021/06/14 00:17:39;;;;;;;1.40;1.02;;;;;;;13.21;58.17;97693.23;1661592;86;21087;-68
2021/06/14 00:20:12;;;;;;;1.72;0.70;;;;;;;13.24;57.29;97692.89;1661718;86;21037;-66
2021/06/14 00:22:44;;;;;;;1.92;0.70;;;;;;;13.26;57.16;97686.55;1661738;86;21111;-68
2021/06/14 00:25:15;;;;;;;2.52;0.82;;;;;;;13.30;57.43;97693.55;1661551;86;21088;-67
2021/06/14 00:27:42;;;;;;;0.55;0.40;;;;;;;13.34;58.20;97690.94;1661554;86;21099;-64
2021/06/14 00:30:10;;;;;;;1.45;0.50;;;;;;;13.37;58.14;97692.39;1661193;86;21064;-65
2021/06/14 00:32:37;;;;;;;2.75;0.65;;;;;;;13.39;57.57;97693.02;1660930;86;21084;-65
2021/06/14 00:35:06;;;;;;;3.42;0.82;;;;;;;13.41;57.74;97688.47;1660891;86;21505;-65
2021/06/14 00:37:33;;;;;;;2.22;0.70;;;;;;;13.42;57.96;97698.74;1660847;86;21093;-67
2021/06/14 00:40:00;;;;;;;0.70;0.53;;;;;;;13.44;58.81;97698.56;1661202;86;21168;-67
2021/06/14 00:42:28;;;;;;;0.70;0.50;;;;;;;13.46;57.73;97689.58;1660625;85;21474;-65
2021/06/14 00:44:55;;;;;;;3.60;0.70;;;;;;;13.47;57.25;97689.91;1661023;86;21046;-65
2021/06/14 00:47:22;;;;;;;2.58;0.60;;;;;;;13.49;57.62;97711.44;1660642;86;21085;-65
2021/06/14 00:49:49;;;;;;;2.77;0.70;;;;;;;13.51;57.39;97699.03;1660632;86;21077;-68
2021/06/14 00:52:16;;;;;;;1.15;0.75;;;;;;;13.51;57.27;97696.42;1660818;85;21054;-65
2021/06/14 00:54:43;;;;;;;2.62;1.12;;;;;;;13.53;57.53;97701.48;1641777;86;21021;-65
2021/06/14 00:57:10;;;;;;;0.93;0.50;;;;;;;13.54;56.97;97695.29;1660618;86;21057;-66
2021/06/14 00:59:37;;;;;;;2.90;1.07;;;;;;;13.54;57.17;97705.20;1660844;86;21049;-64
2021/06/14 01:02:06;;;;;;;2.35;0.78;;;;;;;13.55;56.20;97704.23;1660883;86;21033;-66
2021/06/14 01:04:34;;;;;;;0.50;0.40;;;;;;;13.55;57.21;97702.11;1660831;85;21021;-64
2021/06/14 01:07:03;;;;;;;0.60;0.40;;;;;;;13.56;56.76;97704.56;1661040;86;21140;-65
2021/06/14 01:09:30;;;;;;;1.40;0.55;;;;;;;13.55;56.85;97692.50;1660887;86;21019;-65
2021/06/14 01:12:09;;;;;;;1.45;0.55;;;;;;;13.54;57.35;97698.69;1660965;86;21018;-63
2021/06/14 01:15:08;;;;;;;1.07;0.55;;;;;;;13.55;57.07;97702.93;1660886;86;21033;-63
2021/06/14 01:17:41;;;;;;;;;;;;;;;13.55;57.43;97708.15;1663437;86;21093;-64
2021/06/14 01:20:36;;;;;;;0.90;0.65;;;;;;;13.53;57.67;97707.52;1651503;86;20393;-64
2021/06/14 01:23:17;;;;;;;3.02;0.88;;;;;;;13.51;57.85;97710.77;1664621;86;21026;-63
2021/06/14 01:26:03;;;;;;;0.80;0.53;;;;;;;13.43;57.96;97696.44;1649701;86;21026;-66
2021/06/14 01:28:35;;;;;;;1.25;0.62;;;;;;;13.44;57.94;97696.77;1660915;86;21080;-65
2021/06/14 01:31:05;;;;;;;2.02;0.72;;;;;;;13.43;57.69;97690.41;1657257;86;21499;-64
2021/06/14 01:33:34;;;;;;;1.10;0.42;;;;;;;13.34;59.51;97694.84;1656808;87;21069;-63
2021/06/14 01:36:10;;;;;;;0.93;0.62;;;;;;;13.39;57.46;97691.23;1656825;87;21423;-63
2021/06/14 01:38:40;;;;;;;0.98;0.60;;;;;;;13.36;58.09;97693.36;1655463;86;21085;-63
2021/06/14 01:41:11;;;;;;;1.02;0.53;;;;;;;13.32;59.46;97690.27;1656780;86;21458;-63
2021/06/14 01:43:41;;;;;;;0.65;0.45;;;;;;;13.29;58.01;97687.52;1656705;86;21092;-64
2021/06/14 01:46:16;;;;;;;2.30;0.60;;;;;;;13.27;58.59;97684.25;1656455;87;21099;-63
2021/06/14 01:48:45;;;;;;;1.73;0.90;;;;;;;13.26;57.87;97684.43;1638651;87;21005;-63
2021/06/14 01:51:17;;;;;;;1.42;0.50;;;;;;;13.23;57.71;97690.77;1656819;86;21010;-64
2021/06/14 01:54:02;;;;;;;1.22;0.70;;;;;;;13.22;59.08;97689.66;1657126;86;21064;-66
2021/06/14 01:56:14;;;;;;;0.62;0.57;;;;;;;13.19;57.99;97690.78;1654899;86;21601;-69
2021/06/14 01:58:43;;;;;;;3.15;0.85;;;;;;;13.20;58.51;97686.38;1656880;87;21038;-69
2021/06/14 02:01:12;;;;;;;1.22;0.72;;;;;;;13.15;60.12;97694.69;1654633;86;21142;-64
2021/06/14 02:03:47;;;;;;;1.13;0.77;;;;;;;13.14;59.69;97686.56;1656413;86;21668;-65
2021/06/14 02:06:20;;;;;;;0.72;0.60;;;;;;;13.12;60.23;97685.09;1655831;86;21552;-65
2021/06/14 02:08:48;;;;;;;0.88;0.88;;;;;;;13.10;60.23;97690.48;1656879;87;21112;-64
2021/06/14 02:11:17;;;;;;;0.60;0.60;;;;;;;13.06;61.11;97691.77;1656894;87;21109;-65
2021/06/14 02:13:47;;;;;;;1.30;0.98;;;;;;;13.08;60.29;97689.79;1656852;87;21164;-64
2021/06/14 02:16:16;;;;;;;1.22;0.60;;;;;;;13.05;59.47;97682.79;1656735;87;21041;-66
2021/06/14 02:18:45;;;;;;;0.82;0.50;;;;;;;13.06;59.77;97690.94;1656856;87;21009;-67
2021/06/14 02:21:14;;;;;;;0.50;0.40;;;;;;;13.06;59.36;97693.06;1656950;87;21065;-67
2021/06/14 02:23:41;;;;;;;3.50;0.53;;;;;;;13.06;60.47;97692.25;1656699;86;21025;-64
2021/06/14 02:26:08;;;;;;;0.95;0.50;;;;;;;13.07;58.88;97695.19;1638464;87;21132;-64
2021/06/14 02:28:36;;;;;;;1.75;0.72;;;;;;;13.08;59.89;97696.79;1656692;87;20998;-66
2021/06/14 02:31:04;;;;;;;3.50;0.50;;;;;;;13.07;60.30;97704.31;1656732;86;21085;-67
2021/06/14 02:33:32;;;;;;;3.42;0.85;;;;;;;13.08;60.12;97699.40;1656708;87;21097;-65
2021/06/14 02:36:07;;;;;;;0.80;0.60;;;;;;;13.09;58.88;97699.73;1656430;86;21046;-65
2021/06/14 02:38:36;;;;;;;0.50;0.35;;;;;;;13.09;59.17;97695.82;1656907;86;21061;-66
2021/06/14 02:41:04;;;;;;;0.50;0.50;;;;;;;13.10;59.53;97694.39;1656792;87;21081;-65
2021/06/14 02:43:32;;;;;;;0.50;0.40;;;;;;;13.12;59.63;97702.03;1656671;87;21116;-66
2021/06/14 02:46:00;;;;;;;0.40;0.40;;;;;;;13.11;60.07;97695.21;1656675;87;21529;-66
2021/06/14 02:48:30;;;;;;;0.80;0.47;;;;;;;13.11;59.50;97697.82;1656672;86;21038;-66
2021/06/14 02:51:00;;;;;;;2.02;0.45;;;;;;;13.11;59.81;97689.48;1656734;87;21168;-66
2021/06/14 02:53:32;;;;;;;0.70;0.40;;;;;;;13.12;59.00;97696.33;1656760;86;21231;-66
2021/06/14 02:56:17;;;;;;;0.60;0.50;;;;;;;13.09;60.50;97694.03;1656710;86;21045;-66
2021/06/14 02:58:48;;;;;;;0.50;0.40;;;;;;;13.07;60.12;97693.88;1656808;87;21042;-66
2021/06/14 03:01:16;;;;;;;4.17;0.42;;;;;;;13.07;60.12;97693.88;1639957;87;21061;-66
2021/06/14 03:03:44;;;;;;;0.40;0.40;;;;;;;13.03;61.66;97691.28;1656914;87;21050;-66
2021/06/14 03:06:16;;;;;;;1.10;0.40;;;;;;;13.02;60.42;97689.16;1656818;86;21050;-66
2021/06/14 03:08:46;;;;;;;0.30;0.30;;;;;;;12.97;62.01;97697.13;1656990;86;21137;-65
2021/06/14 03:11:14;;;;;;;1.30;0.50;;;;;;;12.94;61.11;97696.16;1656687;86;21132;-66
2021/06/14 03:13:45;;;;;;;0.57;0.45;;;;;;;12.90;62.54;97696.98;1656898;87;21068;-66
2021/06/14 03:16:15;;;;;;;0.78;0.47;;;;;;;12.87;61.88;97703.01;1656830;87;21124;-66
2021/06/14 03:18:44;;;;;;;0.90;0.50;;;;;;;12.80;63.43;97710.16;1649841;86;21086;-68
2021/06/14 03:21:14;;;;;;;2.27;0.40;;;;;;;12.74;64.54;97708.22;1638312;86;21050;-67
2021/06/14 03:23:40;;;;;;;0.45;0.37;;;;;;;12.71;63.08;97707.73;1634713;86;21034;-66
2021/06/14 03:26:12;;;;;;;2.22;0.30;;;;;;;12.67;65.45;97709.84;1628511;88;21095;-67
2021/06/14 03:28:45;;;;;;;0.82;0.60;;;;;;;12.63;64.58;97706.41;1627888;88;21046;-66
2021/06/14 03:31:14;;;;;;;1.40;0.33;;;;;;;12.61;64.53;97712.26;1628077;87;21106;-66
2021/06/14 03:33:50;;;;;;;0.78;0.40;;;;;;;12.55;65.89;97707.22;1628509;88;21034;-66
2021/06/14 03:36:20;;;;;;;0.30;0.30;;;;;;;12.54;65.95;97700.86;1629008;88;21466;-66
2021/06/14 03:38:50;;;;;;;0.80;0.50;;;;;;;12.52;66.63;97706.73;1628453;88;21126;-65
2021/06/14 03:41:19;;;;;;;11.68;6.17;;;;;;;12.49;66.48;97706.55;1628450;88;20998;-65
2021/06/14 03:43:47;;;;;;;23.65;10.35;;;;;;;12.51;65.97;97699.89;1628515;88;21057;-67
2021/06/14 03:46:14;;;;;;;22.95;11.80;;;;;;;12.52;65.40;97702.34;1628452;88;21035;-65
2021/06/14 03:48:42;;;;;;;37.15;16.10;;;;;;;12.55;65.89;97702.02;1628832;88;21096;-65
2021/06/14 03:51:09;;;;;;;14.00;6.95;;;;;;;12.58;65.80;97705.59;1628474;88;20998;-65
2021/06/14 03:53:36;;;;;;;3.00;2.27;;;;;;;12.61;66.25;97705.75;1628439;88;21081;-65
2021/06/14 03:56:06;;;;;;;2.50;1.50;;;;;;;12.63;64.72;97706.41;1628711;88;20998;-65
2021/06/14 03:58:33;;;;;;;1.55;1.30;;;;;;;12.63;64.82;97702.02;1628536;88;21058;-65
2021/06/14 04:01:01;;;;;;;1.12;0.88;;;;;;;12.63;66.26;97705.11;1628388;88;21026;-63
2021/06/14 04:03:28;;;;;;;0.70;0.60;;;;;;;12.61;69.73;97703.96;1628315;88;21038;-66
2021/06/14 04:06:01;;;;;;;0.95;0.60;;;;;;;12.61;65.83;97699.23;1628699;88;21137;-64
2021/06/14 04:08:30;;;;;;;0.60;0.60;;;;;;;12.60;66.55;97698.45;1626018;88;21034;-64
2021/06/14 04:10:57;;;;;;;0.98;0.62;;;;;;;12.59;65.93;97702.02;1628317;88;21113;-65
2021/06/14 04:13:23;;;;;;;0.40;0.40;;;;;;;12.57;66.97;97699.23;1628679;88;21105;-64
2021/06/14 04:15:51;;;;;;;0.85;0.57;;;;;;;12.53;67.80;97697.44;1628602;88;21090;-65
2021/06/14 04:18:18;;;;;;;0.70;0.70;;;;;;;12.54;66.39;97705.59;1628832;86;21070;-64
2021/06/14 04:20:45;;;;;;;0.82;0.60;;;;;;;12.54;66.73;97699.56;1628323;88;21147;-65
2021/06/14 04:23:12;;;;;;;0.45;0.40;;;;;;;12.54;66.21;97700.86;1627999;88;21077;-64
2021/06/14 04:25:39;;;;;;;2.80;0.40;;;;;;;12.52;68.47;97711.94;1628018;88;21046;-64
2021/06/14 04:28:07;;;;;;;0.90;0.47;;;;;;;12.51;68.98;97706.40;1628414;88;21042;-64
2021/06/14 04:30:35;;;;;;;0.82;0.53;;;;;;;12.51;67.51;97702.01;1629691;88;21069;-64
2021/06/14 04:33:04;;;;;;;0.60;0.45;;;;;;;12.52;69.43;97708.03;1632603;88;21025;-64
2021/06/14 04:35:31;;;;;;;0.70;0.50;;;;;;;12.52;68.03;97702.34;1632760;88;21215;-64
2021/06/14 04:37:57;;;;;;;0.75;0.50;;;;;;;12.53;68.14;97705.77;1632455;88;21077;-64
2021/06/14 04:40:25;;;;;;;0.50;0.40;;;;;;;12.54;68.18;97709.98;1632859;88;21022;-64
2021/06/14 04:42:52;;;;;;;0.72;0.40;;;;;;;12.54;68.69;97703.47;1631419;88;21030;-64
2021/06/14 04:45:19;;;;;;;1.30;0.50;;;;;;;12.55;67.81;97709.01;1631926;88;21108;-64
2021/06/14 04:47:46;;;;;;;0.60;0.40;;;;;;;12.56;67.93;97709.34;1632688;88;21122;-64
2021/06/14 04:50:13;;;;;;;0.50;0.50;;;;;;;12.58;68.18;97705.59;1632554;88;21038;-64
2021/06/14 04:52:40;;;;;;;0.35;0.35;;;;;;;12.59;67.97;97711.14;1632774;88;21010;-66
2021/06/14 04:55:08;;;;;;;2.77;0.62;;;;;;;12.61;69.23;97703.14;1632702;88;21188;-66
2021/06/14 04:57:35;;;;;;;1.98;0.60;;;;;;;12.64;68.68;97711.96;1630987;88;21022;-64
2021/06/14 05:00:07;;;;;;;0.30;0.30;;;;;;;12.62;69.56;97708.20;1631684;88;21483;-64
2021/06/14 05:02:34;;;;;;;0.42;0.35;;;;;;;12.71;69.19;97715.55;1632819;88;21049;-64
2021/06/14 05:05:02;;;;;;;0.42;0.40;;;;;;;12.77;68.05;97708.37;1631146;88;21533;-64
2021/06/14 05:07:29;;;;;;;0.88;0.60;;;;;;;12.82;68.96;97720.43;1632167;88;21498;-64
2021/06/14 05:09:56;;;;;;;0.30;0.20;;;;;;;12.85;67.96;97721.41;1632628;88;21342;-64
2021/06/14 05:12:24;;;;;;;0.50;0.30;;;;;;;12.87;68.64;97721.25;1632118;88;21117;-64
2021/06/14 05:14:51;;;;;;;0.30;0.20;;;;;;;12.83;69.09;97718.98;1632138;88;21118;-63
2021/06/14 05:17:18;;;;;;;0.10;0.10;;;;;;;12.81;68.27;97724.83;1632645;88;21030;-68
2021/06/14 05:19:46;;;;;;;2.37;0.72;;;;;;;12.81;68.53;97719.61;1642656;86;21113;-64
2021/06/14 05:22:14;;;;;;;1.00;0.50;;;;;;;12.24;68.55;97643.70;1656100;85;21030;-64
2021/06/14 05:24:41;;;;;;;0.60;0.40;;;;;;;12.76;68.86;97735.42;1632790;86;21097;-65
2021/06/14 05:27:09;;;;;;;1.47;0.70;;;;;;;12.75;70.06;97729.87;1632421;88;21663;-65
2021/06/14 05:29:36;;;;;;;2.75;1.07;;;;;;;12.73;70.63;97737.84;1635608;86;21117;-64
2021/06/14 05:32:05;;;;;;;4.15;1.67;;;;;;;12.74;70.55;97730.36;1616123;87;21027;-64
2021/06/14 05:34:32;;;;;;;0.98;0.60;;;;;;;12.73;70.54;97743.05;1610912;89;21160;-64
2021/06/14 05:36:59;;;;;;;0.40;0.40;;;;;;;12.75;69.64;97743.72;1613386;88;21092;-72
2021/06/14 05:39:26;;;;;;;0.60;0.47;;;;;;;12.86;70.39;97742.58;1613721;89;21099;-72
2021/06/14 05:41:53;;;;;;;0.20;0.20;;;;;;;13.13;69.47;97749.30;1613238;88;21104;-72
2021/06/14 05:44:20;;;;;;;0.60;0.25;;;;;;;13.37;68.67;97744.55;1614021;88;21041;-71
2021/06/14 05:46:47;;;;;;;0.37;0.33;;;;;;;13.60;68.81;97750.22;1614229;88;21081;-72
2021/06/14 05:49:14;;;;;;;0.50;0.20;;;;;;;13.88;67.64;97745.41;1614144;88;21092;-72
2021/06/14 05:51:42;;;;;;;0.50;0.50;;;;;;;14.05;66.98;97745.66;1600616;90;21569;-72
2021/06/14 05:54:09;;;;;;;0.37;0.37;;;;;;;14.18;66.08;97759.48;1615956;87;21101;-70
2021/06/14 05:56:36;;;;;;;0.88;0.57;;;;;;;14.28;65.48;97747.83;1614432;88;21048;-71
2021/06/14 05:59:05;;;;;;;2.15;0.55;;;;;;;14.43;66.31;97747.97;1614356;88;21650;-73
2021/06/14 06:01:32;;;;;;;1.32;0.60;;;;;;;14.40;65.58;97757.44;1614627;89;21056;-73
2021/06/14 06:03:59;;;;;;;0.45;0.37;;;;;;;14.27;65.65;97761.08;1614316;89;21251;-73
2021/06/14 06:06:26;;;;;;;0.55;0.42;;;;;;;14.15;66.28;97761.95;1615640;87;21068;-72
2021/06/14 06:08:53;;;;;;;0.45;0.40;;;;;;;14.02;67.17;97764.27;1614726;88;21025;-73
2021/06/14 06:11:20;;;;;;;0.90;0.60;;;;;;;13.91;66.92;97763.34;1600978;89;21013;-74
2021/06/14 06:13:48;;;;;;;0.98;0.60;;;;;;;13.79;66.87;97762.06;1614041;88;21230;-72
2021/06/14 06:16:15;;;;;;;0.45;0.45;;;;;;;13.73;67.73;97767.45;1614347;88;21048;-72
2021/06/14 06:18:42;;;;;;;1.30;0.50;;;;;;;13.65;68.88;97766.20;1613970;89;21087;-72
2021/06/14 06:21:10;;;;;;;0.62;0.50;;;;;;;13.59;67.38;97772.55;1614032;89;21079;-72
2021/06/14 06:23:37;;;;;;;0.75;0.35;;;;;;;13.52;67.55;97772.41;1613808;88;21639;-72
2021/06/14 06:26:04;;;;;;;0.50;0.40;;;;;;;13.48;68.69;97776.81;1613807;88;21545;-72
2021/06/14 06:28:30;;;;;;;0.40;0.30;;;;;;;13.44;68.36;97767.20;1613491;89;21108;-72
2021/06/14 06:30:58;;;;;;;0.80;0.47;;;;;;;13.35;69.47;97777.79;1613405;88;21055;-72
2021/06/14 06:33:26;;;;;;;1.00;0.72;;;;;;;13.33;69.14;97768.84;1611802;88;21115;-72
2021/06/14 06:35:53;;;;;;;3.75;0.50;;;;;;;13.33;68.87;97774.55;1611790;89;21107;-72
2021/06/14 06:38:20;;;;;;;0.55;0.35;;;;;;;13.33;69.05;97774.55;1611830;89;21516;-72
2021/06/14 06:40:47;;;;;;;0.30;0.30;;;;;;;13.34;69.30;97770.97;1612012;88;21084;-72
2021/06/14 06:43:14;;;;;;;1.37;0.50;;;;;;;13.37;68.17;97775.84;1600685;88;21478;-72
2021/06/14 06:45:41;;;;;;;0.30;0.20;;;;;;;13.38;70.00;97778.30;1611703;89;21083;-72
2021/06/14 06:48:08;;;;;;;0.30;0.30;;;;;;;13.38;70.73;97773.57;1611964;88;21143;-72
2021/06/14 06:50:35;;;;;;;0.40;0.30;;;;;;;13.36;71.07;97776.81;1611962;88;21111;-72
2021/06/14 06:53:03;;;;;;;0.30;0.30;;;;;;;13.42;68.73;97777.00;1612127;89;21120;-73
2021/06/14 06:55:30;;;;;;;0.40;0.33;;;;;;;13.46;68.42;97772.27;1611909;89;21108;-73
2021/06/14 06:57:57;;;;;;;1.00;0.53;;;;;;;13.49;69.63;97782.36;1611830;89;21049;-72
2021/06/14 07:00:25;;;;;;;0.82;0.60;;;;;;;13.54;70.73;97776.95;1611978;89;21096;-72
2021/06/14 07:02:52;;;;;;;0.60;0.60;;;;;;;13.45;71.70;97788.40;1611732;88;21098;-72
2021/06/14 07:05:19;;;;;;;0.72;0.47;;;;;;;13.31;72.45;97781.22;1611694;89;21036;-72
2021/06/14 07:07:46;;;;;;;0.30;0.30;;;;;;;13.41;70.89;97784.48;1611886;89;21080;-72
2021/06/14 07:10:13;;;;;;;0.35;0.30;;;;;;;13.47;70.84;97779.91;1600780;88;21033;-72
2021/06/14 07:12:41;;;;;;;1.60;0.50;;;;;;;13.54;71.13;97786.08;1611902;89;21075;-72
2021/06/14 07:15:12;;;;;;;0.55;0.37;;;;;;;13.59;69.76;97777.77;1611697;88;21123;-72
2021/06/14 07:17:42;;;;;;;0.68;0.37;;;;;;;13.65;69.67;97787.07;1611344;89;21536;-72
2021/06/14 07:20:12;;;;;;;0.30;0.30;;;;;;;13.73;68.67;97788.84;1599606;90;21227;-72
2021/06/14 07:22:41;;;;;;;0.40;0.40;;;;;;;13.77;69.47;97791.45;1600651;88;21120;-72
2021/06/14 07:25:11;;;;;;;1.02;0.42;;;;;;;13.79;68.78;97786.38;1600726;89;21128;-72
2021/06/14 07:27:40;;;;;;;0.70;0.50;;;;;;;13.83;68.26;97789.95;1611865;89;21139;-72
2021/06/14 07:30:09;;;;;;;0.53;0.40;;;;;;;13.81;71.03;97790.14;1601141;88;21093;-72
2021/06/14 07:32:36;;;;;;;0.82;0.50;;;;;;;14.00;68.43;97790.24;1600390;90;21076;-72
2021/06/14 07:35:05;;;;;;;0.40;0.30;;;;;;;14.10;68.34;97798.19;1614018;88;21131;-72
2021/06/14 07:37:32;;;;;;;3.33;0.42;;;;;;;14.21;67.78;97788.68;1613920;87;21139;-72
2021/06/14 07:39:59;;;;;;;0.93;0.30;;;;;;;14.36;68.07;97790.63;1613850;89;21516;-72
2021/06/14 07:42:26;;;;;;;2.70;0.30;;;;;;;14.50;67.55;97788.10;1613815;88;21612;-74
2021/06/14 07:44:53;;;;;;;0.20;0.20;;;;;;;14.62;67.82;97793.75;1614133;89;21542;-72
2021/06/14 07:47:20;;;;;;;0.30;0.20;;;;;;;14.71;67.00;97797.44;1612990;89;21167;-72
2021/06/14 07:49:47;;;;;;;0.53;0.42;;;;;;;14.83;67.29;97797.04;1614001;88;21067;-72
2021/06/14 07:52:14;;;;;;;0.20;0.20;;;;;;;14.99;66.73;97798.23;1613831;89;21064;-72
2021/06/14 07:54:41;;;;;;;0.20;0.20;;;;;;;15.01;65.56;97793.67;1613880;87;21048;-72
2021/06/14 07:57:08;;;;;;;0.20;0.20;;;;;;;15.04;65.32;97795.92;1613786;89;21064;-72
2021/06/14 07:59:35;;;;;;;0.80;0.50;;;;;;;15.07;65.55;97796.88;1613805;89;21056;-72
2021/06/14 08:02:03;;;;;;;0.33;0.30;;;;;;;15.10;65.32;97803.06;1613779;89;21123;-72
2021/06/14 08:04:30;;;;;;;0.47;0.47;;;;;;;15.14;65.34;97801.72;1614282;88;21137;-73
2021/06/14 08:06:57;;;;;;;0.45;0.45;;;;;;;15.15;65.09;97811.20;1614062;87;21557;-72
2021/06/14 08:09:31;;;;;;;0.45;0.40;;;;;;;15.16;64.87;97806.30;1613458;89;21072;-72
2021/06/14 08:11:59;;;;;;;0.40;0.40;;;;;;;15.16;65.07;97817.58;1614146;89;21040;-72
2021/06/14 08:14:26;;;;;;;0.40;0.40;;;;;;;15.14;64.36;97817.41;1613707;89;21152;-72
2021/06/14 08:16:53;;;;;;;0.93;0.57;;;;;;;15.07;64.59;97823.03;1613936;89;21072;-72
2021/06/14 08:22:23;;;;;;;0.40;0.37;;;;;;;15.10;64.55;97815.65;1614173;89;21509;-72
2021/06/14 08:27:22;;;;;;;0.93;0.53;;;;;;;15.14;64.68;97818.73;1613911;89;21612;-72
2021/06/14 08:29:50;;;;;;;0.70;0.50;;;;;;;15.13;65.22;97817.94;1613891;88;21095;-72
2021/06/14 08:32:18;;;;;;;0.45;0.40;;;;;;;15.36;63.94;97815.80;1612232;88;21166;-64
2021/06/14 08:34:45;;;;;;;0.82;0.47;;;;;;;15.46;63.60;97821.09;1611491;89;21684;-64
2021/06/14 08:37:13;;;;;;;0.60;0.60;;;;;;;15.46;63.17;97826.33;1612077;89;21124;-64
2021/06/14 08:39:40;;;;;;;1.32;0.50;;;;;;;15.41;63.69;97823.42;1611944;88;21072;-64
2021/06/14 08:42:07;;;;;;;0.88;0.50;;;;;;;15.41;63.30;97830.45;1611706;89;21029;-63
2021/06/14 08:44:36;;;;;;;0.40;0.40;;;;;;;15.49;62.64;97824.69;1611610;89;21256;-64
2021/06/14 08:47:06;;;;;;;0.62;0.40;;;;;;;15.57;62.43;97826.42;1589125;89;21068;-64
2021/06/14 08:49:35;;;;;;;0.40;0.40;;;;;;;15.76;62.58;97834.29;1612010;88;21143;-63
2021/06/14 08:52:03;;;;;;;2.27;0.70;;;;;;;15.92;62.07;97827.56;1612019;88;21117;-64
2021/06/14 08:54:32;;;;;;;2.80;0.50;;;;;;;15.96;62.31;97821.79;1611957;88;21017;-63
2021/06/14 08:56:59;;;;;;;1.30;0.53;;;;;;;15.84;62.45;97828.45;1611740;89;21060;-64
2021/06/14 09:02:20;;;;;;;2.00;0.30;;;;;;;16.33;60.58;97829.25;1637372;86;21057;-64
2021/06/14 09:04:47;;;;;;;0.50;0.35;;;;;;;16.28;60.28;97823.23;1637858;87;21050;-64
2021/06/14 09:07:14;;;;;;;0.40;0.30;;;;;;;16.31;60.20;97832.05;1637524;86;21119;-64
2021/06/14 09:09:42;;;;;;;0.47;0.40;;;;;;;16.36;60.26;97823.64;1637442;86;21109;-64
2021/06/14 09:12:09;;;;;;;0.37;0.37;;;;;;;16.37;59.81;97829.20;1637758;86;21042;-64
2021/06/14 09:14:40;;;;;;;0.47;0.40;;;;;;;16.43;59.57;97828.46;1637874;87;21121;-65
2021/06/14 09:17:14;;;;;;;0.25;0.23;;;;;;;16.49;58.99;97828.56;1637651;87;21010;-64
2021/06/14 09:19:51;;;;;;;1.22;0.40;;;;;;;16.60;59.06;97832.05;1637018;86;21104;-65
2021/06/14 09:22:22;;;;;;;0.37;0.37;;;;;;;16.70;59.41;97822.57;1637595;86;21466;-65
2021/06/14 09:24:56;;;;;;;0.75;0.60;;;;;;;16.82;58.53;97823.72;1637840;86;21108;-65
2021/06/14 09:27:42;;;;;;;0.30;0.30;;;;;;;16.87;58.39;97825.80;1637488;86;21149;-65
2021/06/14 09:30:25;;;;;;;0.47;0.43;;;;;;;17.00;58.23;97829.88;1638001;87;21101;-64
2021/06/14 09:33:07;;;;;;;0.47;0.47;;;;;;;17.15;58.51;97820.14;1637387;87;21330;-63
2021/06/14 09:35:39;;;;;;;0.65;0.40;;;;;;;17.28;57.43;97828.11;1637659;86;21077;-67
2021/06/14 09:38:10;;;;;;;1.07;0.45;;;;;;;17.30;57.65;97827.94;1637604;86;21514;-64
2021/06/14 09:40:47;;;;;;;0.30;0.30;;;;;;;17.34;57.24;97814.25;1637740;86;21597;-64
2021/06/14 09:43:36;;;;;;;0.57;0.47;;;;;;;17.39;57.08;97815.80;1637388;88;21205;-64
2021/06/14 09:46:25;;;;;;;1.00;0.68;;;;;;;17.53;57.24;97817.55;1637575;86;21055;-64
2021/06/14 09:48:52;;;;;;;0.68;0.60;;;;;;;17.64;56.54;97820.67;1637608;86;21030;-65
2021/06/14 09:51:19;;;;;;;0.62;0.47;;;;;;;17.64;56.70;97821.49;1637285;86;21149;-64
2021/06/14 09:53:53;;;;;;;1.52;0.88;;;;;;;17.69;56.33;97823.55;1637519;87;21061;-65
2021/06/14 09:56:30;;;;;;;0.85;0.57;;;;;;;17.73;56.28;97818.23;1637881;86;21049;-64
2021/06/14 09:58:59;;;;;;;0.80;0.60;;;;;;;17.63;56.42;97816.41;1637694;86;21113;-65
2021/06/14 10:01:33;;;;;;;0.53;0.50;;;;;;;17.67;57.01;97812.41;1635971;87;21241;-65
2021/06/14 10:04:09;;;;;;;1.70;0.40;;;;;;;17.85;56.60;97816.70;1635382;87;21046;-62
2021/06/14 10:06:39;;;;;;;3.60;0.78;;;;;;;18.15;56.31;97809.39;1635453;87;21045;-64
2021/06/14 10:09:15;;;;;;;1.65;0.98;;;;;;;18.27;55.51;97808.66;1634999;86;21061;-69
2021/06/14 10:11:45;;;;;;;2.15;0.70;;;;;;;18.45;55.04;97804.99;1635215;88;21534;-64
2021/06/14 10:14:16;;;;;;;0.50;0.45;;;;;;;18.57;54.85;97808.40;1635385;87;21631;-65
2021/06/14 10:16:46;;;;;;;0.70;0.70;;;;;;;18.73;54.82;97819.39;1635668;87;21029;-64
2021/06/14 10:19:16;;;;;;;0.40;0.40;;;;;;;18.78;54.03;97814.36;1635219;87;21689;-64
2021/06/14 10:21:49;;;;;;;1.22;0.50;;;;;;;18.76;53.68;97809.78;1635409;87;21052;-65
2021/06/14 10:24:20;;;;;;;0.50;0.50;;;;;;;18.75;53.91;97813.45;1635816;87;21138;-65
2021/06/14 10:26:51;;;;;;;0.72;0.50;;;;;;;18.83;53.55;97808.51;1635233;88;21080;-65
2021/06/14 10:29:18;;;;;;;0.60;0.50;;;;;;;18.83;53.77;97807.20;1634914;88;21202;-65
2021/06/14 10:31:50;;;;;;;0.62;0.50;;;;;;;18.85;53.04;97795.95;1635347;87;21112;-65
2021/06/14 10:34:17;;;;;;;0.65;0.50;;;;;;;18.92;53.66;97794.14;1635402;88;21171;-66
2021/06/14 10:36:52;;;;;;;0.90;0.33;;;;;;;19.07;53.38;97793.45;1635727;86;21207;-65
2021/06/14 10:39:26;;;;;;;0.68;0.47;;;;;;;19.20;53.71;97789.54;1636370;87;21145;-66
2021/06/14 10:41:54;;;;;;;0.72;0.50;;;;;;;19.35;52.82;97802.00;1635220;88;21244;-65
2021/06/14 10:44:21;;;;;;;0.40;0.40;;;;;;;19.34;52.37;97800.88;1635380;87;21177;-66
2021/06/14 10:46:48;;;;;;;0.85;0.60;;;;;;;19.36;52.33;97793.59;1635523;87;21128;-65
2021/06/14 10:49:17;;;;;;;0.30;0.20;;;;;;;19.33;51.42;97785.61;1634890;88;21121;-65
2021/06/14 10:51:45;;;;;;;0.40;0.40;;;;;;;19.29;51.73;97790.98;1635137;88;21136;-65
2021/06/14 10:54:20;;;;;;;0.98;0.50;;;;;;;19.25;51.48;97799.47;1635052;87;21085;-66
2021/06/14 10:56:46;;;;;;;0.47;0.40;;;;;;;19.25;51.70;97787.62;1634829;86;21518;-65
2021/06/14 10:59:17;;;;;;;0.30;0.30;;;;;;;19.24;51.19;97786.81;1635139;88;21034;-65
2021/06/14 11:01:47;;;;;;;2.85;0.50;;;;;;;19.11;51.18;97793.37;1633316;87;21549;-66
2021/06/14 11:04:29;;;;;;;0.47;0.40;;;;;;;19.01;51.42;97790.33;1635059;87;21502;-65
2021/06/14 11:06:59;;;;;;;0.45;0.45;;;;;;;19.03;52.15;97788.29;1635197;87;21558;-66
2021/06/14 11:09:42;;;;;;;1.42;0.50;;;;;;;18.99;51.96;97792.33;1635088;88;21179;-66
2021/06/14 11:12:12;;;;;;;0.80;0.40;;;;;;;18.99;52.21;97787.06;1635489;87;21450;-66
2021/06/14 11:14:45;;;;;;;0.98;0.40;;;;;;;18.99;52.19;97778.39;1635106;87;21050;-65
2021/06/14 11:17:25;;;;;;;0.70;0.45;;;;;;;18.97;51.96;97778.58;1635174;87;21137;-66
2021/06/14 11:20:03;;;;;;;0.78;0.55;;;;;;;19.06;52.14;97772.62;1635132;87;21156;-66
2021/06/14 11:22:46;;;;;;;0.50;0.40;;;;;;;19.17;51.88;97780.73;1635897;87;21381;-65
2021/06/14 11:25:29;;;;;;;0.40;0.40;;;;;;;19.31;51.87;97778.41;1635110;88;21058;-66
2021/06/14 11:28:01;;;;;;;1.32;0.70;;;;;;;19.26;51.67;97780.04;1634670;87;21042;-66
2021/06/14 11:30:33;;;;;;;0.50;0.50;;;;;;;19.09;52.13;97776.16;1634932;87;21542;-65
2021/06/14 11:33:01;;;;;;;1.42;0.60;;;;;;;18.85;52.32;97777.03;1635257;87;21133;-66
2021/06/14 11:35:28;;;;;;;0.85;0.45;;;;;;;18.62;52.68;97783.64;1613222;88;21073;-66
2021/06/14 11:37:59;;;;;;;0.55;0.40;;;;;;;18.37;53.91;97789.88;1635347;88;21140;-65
2021/06/14 11:40:33;;;;;;;0.53;0.30;;;;;;;18.10;54.88;97790.27;1635077;88;21106;-65
2021/06/14 11:43:10;;;;;;;1.35;0.57;;;;;;;17.91;55.81;97786.52;1635036;87;21581;-65
2021/06/14 11:45:43;;;;;;;0.72;0.53;;;;;;;17.72;56.75;97783.27;1635679;87;21180;-64
2021/06/14 11:48:24;;;;;;;1.20;0.60;;;;;;;17.62;56.20;97784.13;1635182;88;21097;-67
2021/06/14 11:51:07;;;;;;;0.60;0.50;;;;;;;17.53;55.94;97780.78;1635073;87;21105;-66
2021/06/14 11:53:55;;;;;;;1.22;0.50;;;;;;;17.51;55.71;97786.72;1635139;87;21192;-66